createdAt,value
2023-02-15T00:00:18.237Z,101656.47
2023-02-15T00:02:46.643Z,101661.00
2023-02-15T00:05:15.119Z,101654.78
2023-02-15T00:07:43.684Z,101659.88
2023-02-15T00:10:13.067Z,101655.66
2023-02-15T00:12:41.546Z,101646.03
2023-02-15T00:15:10.281Z,101645.44
2023-02-15T00:17:38.979Z,101643.66
2023-02-15T00:20:08.150Z,101648.94
2023-02-15T00:22:36.584Z,101639.38
2023-02-15T00:25:05.160Z,101639.56
2023-02-15T00:27:33.600Z,101648.28
2023-02-15T00:30:02.079Z,101638.78
2023-02-15T00:32:30.592Z,101626.72
2023-02-15T00:34:59.033Z,101629.38
2023-02-15T00:37:27.521Z,101623.09
2023-02-15T00:39:56.074Z,101622.50
2023-02-15T00:42:24.491Z,101622.50
2023-02-15T00:44:52.989Z,101615.91
2023-02-15T00:47:21.525Z,101619.56
2023-02-15T00:49:50.008Z,101616.00
2023-02-15T00:52:18.466Z,101618.63
2023-02-15T00:54:46.906Z,101618.63
2023-02-15T00:57:15.378Z,101615.16
2023-02-15T00:59:43.835Z,101619.69
2023-02-15T01:02:12.533Z,101622.56
2023-02-15T01:04:41.027Z,101615.78
2023-02-15T01:07:10.183Z,101619.50
2023-02-15T01:09:38.661Z,101619.03
2023-02-15T01:12:07.273Z,101615.66
2023-02-15T01:14:35.765Z,101625.13
2023-02-15T01:17:04.203Z,101616.06
2023-02-15T01:19:32.656Z,101619.38
2023-02-15T01:22:01.099Z,101615.03
2023-02-15T01:24:29.618Z,101614.19
2023-02-15T01:26:58.081Z,101614.00
2023-02-15T01:29:26.526Z,101604.59
2023-02-15T01:31:55.058Z,101604.69
2023-02-15T01:34:24.208Z,101605.88
2023-02-15T01:36:52.682Z,101598.34
2023-02-15T01:39:21.141Z,101596.00
2023-02-15T01:41:49.715Z,101600.66
2023-02-15T01:44:50.244Z,101594.91
2023-02-15T01:47:43.541Z,101591.72
2023-02-15T01:50:29.526Z,101599.66
2023-02-15T01:53:19.050Z,101590.13
2023-02-15T01:55:55.337Z,101594.53
2023-02-15T01:58:25.155Z,101579.78
2023-02-15T02:00:53.662Z,101585.97
2023-02-15T02:03:37.410Z,101581.06
2023-02-15T02:06:06.200Z,101572.03
2023-02-15T02:08:35.064Z,101575.63
2023-02-15T02:11:03.583Z,101574.50
2023-02-15T02:13:32.065Z,101571.59
2023-02-15T02:16:13.986Z,101573.19
2023-02-15T02:19:35.183Z,101575.00
2023-02-15T02:22:46.762Z,101568.41
2023-02-15T02:25:32.802Z,101562.47
2023-02-15T02:28:31.632Z,101567.72
2023-02-15T02:31:17.481Z,101556.25
2023-02-15T02:34:27.837Z,101554.59
2023-02-15T02:37:38.547Z,101559.00
2023-02-15T02:40:25.324Z,101557.72
2023-02-15T02:43:04.231Z,101563.63
2023-02-15T02:45:46.141Z,101557.34
2023-02-15T02:48:32.168Z,101550.31
2023-02-15T02:51:00.474Z,101541.75
2023-02-15T02:53:32.622Z,101543.34
2023-02-15T02:56:04.073Z,101543.47
2023-02-15T02:58:42.326Z,101537.34
2023-02-15T03:01:19.657Z,101539.50
2023-02-15T03:03:53.199Z,101533.91
2023-02-15T03:06:33.424Z,101530.88
2023-02-15T03:09:16.360Z,101537.41
2023-02-15T03:11:46.863Z,101523.69
2023-02-15T03:14:18.330Z,101522.00
2023-02-15T03:16:49.795Z,101518.69
2023-02-15T03:19:32.171Z,101512.69
2023-02-15T03:22:11.198Z,101524.91
2023-02-15T03:24:53.409Z,101517.94
2023-02-15T03:27:27.303Z,101513.97
2023-02-15T03:30:02.017Z,101517.19
2023-02-15T03:32:33.412Z,101518.00
2023-02-15T03:35:02.247Z,101510.97
2023-02-15T03:37:30.759Z,101505.06
2023-02-15T03:40:26.157Z,101513.22
2023-02-15T03:43:05.802Z,101507.84
2023-02-15T03:45:36.424Z,101501.00
2023-02-15T03:48:05.522Z,101504.47
2023-02-15T03:50:53.145Z,101503.44
2023-02-15T03:53:24.540Z,101500.06
2023-02-15T03:55:56.962Z,101501.84
2023-02-15T03:58:42.841Z,101501.56
2023-02-15T04:01:59.365Z,101498.94
2023-02-15T04:04:41.602Z,101497.09
2023-02-15T04:07:11.325Z,101497.78
2023-02-15T04:09:57.057Z,101497.66
2023-02-15T04:12:25.632Z,101502.84
2023-02-15T04:15:11.431Z,101494.00
2023-02-15T04:17:40.234Z,101509.72
2023-02-15T04:20:27.624Z,101506.56
2023-02-15T04:23:13.360Z,101513.88
2023-02-15T04:25:41.946Z,101506.31
2023-02-15T04:28:10.440Z,101513.97
2023-02-15T04:30:38.906Z,101506.09
2023-02-15T04:33:07.345Z,101507.69
2023-02-15T04:35:35.822Z,101503.38
2023-02-15T04:38:04.453Z,101504.31
2023-02-15T04:40:33.554Z,101502.59
2023-02-15T04:43:02.133Z,101498.44
2023-02-15T04:45:30.738Z,101489.25
2023-02-15T04:47:59.247Z,101495.66
2023-02-15T04:50:27.683Z,101487.13
2023-02-15T04:52:56.335Z,101476.09
2023-02-15T04:55:24.883Z,101483.16
2023-02-15T04:57:53.339Z,101474.69
2023-02-15T05:00:21.664Z,101464.44
2023-02-15T05:02:50.118Z,101459.94
2023-02-15T05:05:18.678Z,101464.28
2023-02-15T05:07:47.428Z,101458.00
2023-02-15T05:10:15.971Z,101451.91
2023-02-15T05:12:44.403Z,101455.44
2023-02-15T05:15:12.849Z,101450.47
2023-02-15T05:17:41.506Z,101451.47
2023-02-15T05:20:10.352Z,101452.50
2023-02-15T05:22:38.794Z,101453.53
2023-02-15T05:25:25.128Z,101461.16
2023-02-15T05:28:25.430Z,101454.94
2023-02-15T05:31:18.392Z,101457.50
2023-02-15T05:33:47.508Z,101456.56
2023-02-15T05:36:16.196Z,101447.06
2023-02-15T05:38:44.747Z,101450.72
2023-02-15T05:41:13.722Z,101446.56
2023-02-15T05:43:42.557Z,101446.66
2023-02-15T05:46:11.366Z,101440.22
2023-02-15T05:48:39.911Z,101446.81
2023-02-15T05:51:15.045Z,101450.88
2023-02-15T05:53:43.891Z,101451.72
2023-02-15T05:56:13.523Z,101447.56
2023-02-15T05:58:43.716Z,101445.06
2023-02-15T06:01:22.979Z,101450.38
2023-02-15T06:03:51.809Z,101452.25
2023-02-15T06:06:20.774Z,101451.56
2023-02-15T06:08:48.950Z,101451.63
2023-02-15T06:11:17.626Z,101446.56
2023-02-15T06:13:46.025Z,101450.88
2023-02-15T06:16:14.505Z,101451.00
2023-02-15T06:18:42.983Z,101458.94
2023-02-15T06:21:11.429Z,101453.75
2023-02-15T06:23:39.964Z,101462.47
2023-02-15T06:26:08.402Z,101451.91
2023-02-15T06:28:38.268Z,101459.63
2023-02-15T06:31:06.970Z,101454.09
2023-02-15T06:33:35.852Z,101457.50
2023-02-15T06:36:04.956Z,101456.13
2023-02-15T06:38:33.770Z,101442.66
2023-02-15T06:41:02.225Z,101451.31
2023-02-15T06:43:30.770Z,101458.22
2023-02-15T06:46:00.603Z,101453.66
2023-02-15T06:48:29.385Z,101451.13
2023-02-15T06:50:57.815Z,101445.09
2023-02-15T06:53:26.308Z,101456.44
2023-02-15T06:55:54.758Z,101452.16
2023-02-15T06:58:23.221Z,101450.19
2023-02-15T07:00:51.671Z,101445.69
2023-02-15T07:03:20.129Z,101451.88
2023-02-15T07:05:49.788Z,101448.31
2023-02-15T07:08:18.502Z,101448.31
2023-02-15T07:10:47.091Z,101449.19
2023-02-15T07:13:14.602Z,101452.19
2023-02-15T07:15:43.147Z,101443.97
2023-02-15T07:18:12.135Z,101446.41
2023-02-15T07:20:42.639Z,101444.56
2023-02-15T07:23:11.440Z,101435.47
2023-02-15T07:25:39.962Z,101428.44
2023-02-15T07:28:10.428Z,101430.81
2023-02-15T07:30:38.913Z,101429.66
2023-02-15T07:33:25.464Z,101433.91
2023-02-15T07:36:00.158Z,101429.41
2023-02-15T07:38:31.799Z,101419.44
2023-02-15T07:41:05.403Z,101414.59
2023-02-15T07:43:39.767Z,101418.63
2023-02-15T07:46:12.794Z,101408.91
2023-02-15T07:48:42.441Z,101418.25
2023-02-15T07:51:12.751Z,101403.94
2023-02-15T07:53:41.743Z,101403.75
2023-02-15T07:56:13.500Z,101405.53
2023-02-15T07:58:54.999Z,101401.00
2023-02-15T08:01:27.401Z,101392.91
2023-02-15T08:03:56.546Z,101397.06
2023-02-15T08:06:27.406Z,101398.75
2023-02-15T08:08:56.220Z,101399.31
2023-02-15T08:11:37.495Z,101397.25
2023-02-15T08:14:18.681Z,101397.72
2023-02-15T08:16:50.600Z,101391.97
2023-02-15T08:19:23.946Z,101391.78
2023-02-15T08:22:07.307Z,101396.66
2023-02-15T08:24:38.800Z,101388.28
2023-02-15T08:27:10.535Z,101388.88
2023-02-15T08:29:40.221Z,101394.94
2023-02-15T08:32:12.981Z,101393.81
2023-02-15T08:34:43.614Z,101380.25
2023-02-15T08:37:12.134Z,101378.28
2023-02-15T08:39:40.620Z,101376.09
2023-02-15T08:42:09.336Z,101377.59
2023-02-15T08:44:37.790Z,101373.72
2023-02-15T08:47:06.275Z,101375.94
2023-02-15T08:49:35.079Z,101364.28
2023-02-15T08:52:03.596Z,101372.63
2023-02-15T08:54:32.075Z,101364.44
2023-02-15T08:57:01.049Z,101366.88
2023-02-15T08:59:29.549Z,101359.50
2023-02-15T09:01:58.211Z,101366.03
2023-02-15T09:04:26.727Z,101369.97
2023-02-15T09:06:56.114Z,101361.78
2023-02-15T09:09:24.762Z,101364.94
2023-02-15T09:11:58.879Z,101362.94
2023-02-15T09:14:28.842Z,101372.22
2023-02-15T09:16:57.555Z,101367.50
2023-02-15T09:19:26.571Z,101369.78
2023-02-15T09:21:55.026Z,101348.41
2023-02-15T09:24:23.595Z,101348.84
2023-02-15T09:26:52.053Z,101349.34
2023-02-15T09:29:21.065Z,101349.78
2023-02-15T09:31:52.104Z,101347.34
2023-02-15T09:34:23.026Z,101347.75
2023-02-15T09:36:52.142Z,101353.34
2023-02-15T09:39:26.790Z,101346.72
2023-02-15T09:41:55.497Z,101351.53
2023-02-15T09:44:50.919Z,101350.16
2023-02-15T09:47:23.998Z,101355.00
2023-02-15T09:50:10.040Z,101355.41
2023-02-15T09:53:07.763Z,101362.03
2023-02-15T09:55:36.194Z,101353.69
2023-02-15T09:58:38.516Z,101363.78
2023-02-15T10:01:52.172Z,101361.56
2023-02-15T10:04:32.197Z,101357.44
2023-02-15T10:07:03.725Z,101356.13
2023-02-15T10:09:43.675Z,101357.47
2023-02-15T10:12:56.612Z,101339.38
2023-02-15T10:15:25.187Z,101344.22
2023-02-15T10:18:20.970Z,101345.56
2023-02-15T10:21:29.491Z,101347.75
2023-02-15T10:24:28.946Z,101337.56
2023-02-15T10:27:15.501Z,101337.22
2023-02-15T10:30:10.029Z,101340.38
2023-02-15T10:33:00.292Z,101333.69
2023-02-15T10:35:46.441Z,101331.41
2023-02-15T10:38:43.387Z,101330.19
2023-02-15T10:41:20.444Z,101315.78
2023-02-15T10:44:08.848Z,101314.59
2023-02-15T10:47:06.214Z,101312.38
2023-02-15T10:49:51.796Z,101309.25
2023-02-15T10:52:44.697Z,101304.44
2023-02-15T10:55:58.886Z,101299.41
2023-02-15T10:59:10.064Z,101295.19
2023-02-15T11:01:57.620Z,101288.47
2023-02-15T11:04:55.453Z,101288.81
2023-02-15T11:07:28.404Z,101286.44
2023-02-15T11:10:08.402Z,101295.44
2023-02-15T11:12:36.966Z,101291.81
2023-02-15T11:15:35.444Z,101284.09
2023-02-15T11:18:21.791Z,101281.06
2023-02-15T11:21:11.469Z,101286.84
2023-02-15T11:23:46.528Z,101283.44
2023-02-15T11:26:42.315Z,101279.34
2023-02-15T11:29:29.268Z,101277.88
2023-02-15T11:32:35.083Z,101275.41
2023-02-15T11:35:12.640Z,101279.84
2023-02-15T11:37:51.141Z,101267.28
2023-02-15T11:40:30.576Z,101273.78
2023-02-15T11:43:07.131Z,101269.91
2023-02-15T11:45:37.243Z,101266.84
2023-02-15T11:48:13.607Z,101266.75
2023-02-15T11:50:43.824Z,101260.34
2023-02-15T11:53:25.857Z,101254.06
2023-02-15T11:55:54.537Z,101258.75
2023-02-15T11:58:50.308Z,101255.69
2023-02-15T12:01:37.900Z,101243.84
2023-02-15T12:04:32.855Z,101248.91
2023-02-15T12:07:23.669Z,101251.97
2023-02-15T12:10:34.701Z,101249.53
2023-02-15T12:13:17.334Z,101247.09
2023-02-15T12:15:53.020Z,101241.50
2023-02-15T12:18:46.332Z,101238.50
2023-02-15T12:21:36.665Z,101237.25
2023-02-15T12:24:34.425Z,101227.34
2023-02-15T12:27:13.339Z,101237.44
2023-02-15T12:29:48.725Z,101221.38
2023-02-15T12:32:35.431Z,101232.41
2023-02-15T12:35:14.946Z,101215.53
2023-02-15T12:37:57.139Z,101221.03
2023-02-15T12:40:34.294Z,101229.16
2023-02-15T12:43:09.487Z,101234.34
2023-02-15T12:45:40.299Z,101226.09
2023-02-15T12:48:23.710Z,101219.56
2023-02-15T12:50:56.411Z,101212.00
2023-02-15T12:53:37.343Z,101210.88
2023-02-15T12:56:11.736Z,101199.03
2023-02-15T12:58:42.243Z,101206.59
2023-02-15T13:01:25.826Z,101202.81
2023-02-15T13:03:58.574Z,101203.66
2023-02-15T13:06:28.312Z,101190.94
2023-02-15T13:09:00.846Z,101187.00
2023-02-15T13:11:35.284Z,101187.16
2023-02-15T13:14:29.508Z,101188.41
2023-02-15T13:17:02.480Z,101192.47
2023-02-15T13:19:44.683Z,101172.06
2023-02-15T13:22:22.550Z,101174.84
2023-02-15T13:25:06.403Z,101170.25
2023-02-15T13:27:41.511Z,101162.97
2023-02-15T13:30:27.965Z,101170.06
2023-02-15T13:33:02.761Z,101168.13
2023-02-15T13:36:08.683Z,101166.41
2023-02-15T13:38:49.304Z,101170.31
2023-02-15T13:41:36.888Z,101166.81
2023-02-15T13:44:58.050Z,101164.72
2023-02-15T13:47:50.259Z,101162.91
2023-02-15T13:50:42.121Z,101158.41
2023-02-15T13:53:39.154Z,101161.75
2023-02-15T13:56:19.047Z,101151.00
2023-02-15T13:59:19.769Z,101151.53
2023-02-15T14:02:28.484Z,101156.53
2023-02-15T14:05:37.066Z,101152.19
2023-02-15T14:08:44.017Z,101163.84
2023-02-15T14:11:43.943Z,101159.50
2023-02-15T14:14:42.812Z,101157.94
2023-02-15T14:17:38.573Z,101153.16
2023-02-15T14:20:26.245Z,101141.53
2023-02-15T14:23:31.139Z,101143.88
2023-02-15T14:26:04.247Z,101135.09
2023-02-15T14:29:03.793Z,101140.66
2023-02-15T14:31:45.275Z,101138.31
2023-02-15T14:34:34.599Z,101143.03
2023-02-15T14:37:04.030Z,101135.72
2023-02-15T14:40:04.442Z,101137.41
2023-02-15T14:43:06.504Z,101143.72
2023-02-15T14:45:56.547Z,101133.75
2023-02-15T14:48:34.342Z,101135.13
2023-02-15T14:51:02.933Z,101136.13
2023-02-15T14:53:34.127Z,101131.50
2023-02-15T14:56:03.340Z,101130.78
2023-02-15T14:58:32.011Z,101138.78
2023-02-15T15:01:08.921Z,101135.84
2023-02-15T15:03:37.716Z,101140.16
2023-02-15T15:06:07.856Z,101130.78
2023-02-15T15:08:41.075Z,101122.00
2023-02-15T15:11:42.974Z,101124.06
2023-02-15T15:14:35.675Z,101111.72
2023-02-15T15:17:06.453Z,101114.56
2023-02-15T15:19:53.713Z,101106.16
2023-02-15T15:22:27.463Z,101112.91
2023-02-15T15:25:02.382Z,101105.25
2023-02-15T15:27:55.347Z,101103.97
2023-02-15T15:30:23.535Z,101096.47
2023-02-15T15:32:57.816Z,101093.38
2023-02-15T15:35:54.495Z,101099.16
2023-02-15T15:38:47.069Z,101089.78
2023-02-15T15:42:00.308Z,101096.38
2023-02-15T15:45:13.961Z,101092.38
2023-02-15T15:48:07.414Z,101096.28
2023-02-15T15:50:36.584Z,101088.72
2023-02-15T15:53:05.816Z,101089.19
2023-02-15T15:55:36.181Z,101091.28
2023-02-15T15:58:09.515Z,101080.94
2023-02-15T16:00:45.505Z,101083.34
2023-02-15T16:03:37.142Z,101076.75
2023-02-15T16:06:05.729Z,101071.06
2023-02-15T16:08:41.540Z,101076.94
2023-02-15T16:11:29.456Z,101072.34
2023-02-15T16:14:07.042Z,101077.38
2023-02-15T16:16:36.191Z,101066.50
2023-02-15T16:19:06.693Z,101069.84
2023-02-15T16:21:38.408Z,101066.91
2023-02-15T16:24:15.797Z,101063.03
2023-02-15T16:27:16.089Z,101065.56
2023-02-15T16:29:44.542Z,101056.59
2023-02-15T16:32:20.669Z,101063.72
2023-02-15T16:35:02.950Z,101072.50
2023-02-15T16:37:37.402Z,101071.63
2023-02-15T16:40:06.547Z,101074.16
2023-02-15T16:42:35.777Z,101071.06
2023-02-15T16:45:10.510Z,101078.72
2023-02-15T16:47:45.382Z,101073.97
2023-02-15T16:50:26.897Z,101064.88
2023-02-15T16:52:55.504Z,101061.81
2023-02-15T16:55:27.339Z,101057.88
2023-02-15T16:58:03.846Z,101066.25
2023-02-15T17:00:37.518Z,101066.50
2023-02-15T17:03:08.557Z,101065.81
2023-02-15T17:05:48.802Z,101062.59
2023-02-15T17:08:29.052Z,101061.44
2023-02-15T17:11:21.044Z,101069.09
2023-02-15T17:14:07.805Z,101076.75
2023-02-15T17:16:53.130Z,101070.97
2023-02-15T17:19:31.271Z,101076.56
2023-02-15T17:22:09.163Z,101086.56
2023-02-15T17:24:44.844Z,101085.75
2023-02-15T17:27:27.722Z,101085.19
2023-02-15T17:30:02.803Z,101082.78
2023-02-15T17:32:34.480Z,101077.88
2023-02-15T17:35:11.160Z,101061.66
2023-02-15T17:37:39.227Z,101070.00
2023-02-15T17:40:30.344Z,101061.72
2023-02-15T17:42:58.680Z,101068.41
2023-02-15T17:45:42.842Z,101069.75
2023-02-15T17:48:32.832Z,101071.41
2023-02-15T17:51:04.320Z,101065.63
2023-02-15T17:53:33.762Z,101061.81
2023-02-15T17:56:10.399Z,101078.22
2023-02-15T17:58:39.389Z,101069.50
2023-02-15T18:01:37.398Z,101081.56
2023-02-15T18:04:23.552Z,101078.56
2023-02-15T18:07:10.052Z,101071.72
2023-02-15T18:09:55.676Z,101072.81
2023-02-15T18:12:30.122Z,101087.13
2023-02-15T18:14:59.377Z,101083.03
2023-02-15T18:17:47.028Z,101071.75
2023-02-15T18:20:27.080Z,101072.72
2023-02-15T18:22:55.449Z,101075.50
2023-02-15T18:25:25.971Z,101071.16
2023-02-15T18:27:55.379Z,101071.16
2023-02-15T18:30:26.965Z,101076.72
2023-02-15T18:32:58.121Z,101079.50
2023-02-15T18:35:30.446Z,101084.91
2023-02-15T18:38:00.482Z,101084.06
2023-02-15T18:40:30.382Z,101084.06
2023-02-15T18:42:58.910Z,101084.91
2023-02-15T18:45:33.072Z,101080.81
2023-02-15T18:48:01.973Z,101083.47
2023-02-15T18:50:35.296Z,101078.16
2023-02-15T18:53:06.722Z,101079.97
2023-02-15T18:55:36.601Z,101075.66
2023-02-15T18:58:04.880Z,101069.63
2023-02-15T19:00:36.433Z,101073.97
2023-02-15T19:03:07.776Z,101074.81
2023-02-15T19:05:35.963Z,101078.16
2023-02-15T19:08:05.275Z,101074.44
2023-02-15T19:10:34.984Z,101072.28
2023-02-15T19:13:03.460Z,101066.47
2023-02-15T19:15:32.261Z,101067.91
2023-02-15T19:18:00.789Z,101060.41
2023-02-15T19:20:44.563Z,101060.16
2023-02-15T19:23:25.128Z,101058.38
2023-02-15T19:25:55.379Z,101059.09
2023-02-15T19:28:41.349Z,101055.59
2023-02-15T19:31:14.197Z,101048.72
2023-02-15T19:33:45.221Z,101046.94
2023-02-15T19:36:19.171Z,101046.94
2023-02-15T19:38:51.507Z,101040.94
2023-02-15T19:41:28.924Z,101047.06
2023-02-15T19:43:57.172Z,101045.28
2023-02-15T19:46:26.334Z,101041.78
2023-02-15T19:48:55.325Z,101044.53
2023-02-15T19:51:24.318Z,101047.19
2023-02-15T19:53:53.058Z,101044.69
2023-02-15T19:56:26.957Z,101039.66
2023-02-15T19:58:57.866Z,101043.34
2023-02-15T20:01:26.387Z,101042.81
2023-02-15T20:03:55.648Z,101047.34
2023-02-15T20:06:24.157Z,101054.72
2023-02-15T20:09:15.848Z,101046.19
2023-02-15T20:11:44.433Z,101051.03
2023-02-15T20:14:16.414Z,101039.97
2023-02-15T20:16:44.897Z,101044.69
2023-02-15T20:19:14.111Z,101053.69
2023-02-15T20:21:45.605Z,101048.78
2023-02-15T20:24:22.406Z,101044.06
2023-02-15T20:26:51.299Z,101040.47
2023-02-15T20:29:20.861Z,101039.03
2023-02-15T20:31:49.183Z,101025.94
2023-02-15T20:34:17.360Z,101037.50
2023-02-15T20:36:45.634Z,101034.94
2023-02-15T20:39:20.512Z,101035.91
2023-02-15T20:41:49.119Z,101024.53
2023-02-15T20:44:30.150Z,101033.50
2023-02-15T20:47:01.517Z,101031.13
2023-02-15T20:49:29.929Z,101035.09
2023-02-15T20:51:58.812Z,101027.41
2023-02-15T20:54:37.298Z,101028.50
2023-02-15T20:57:07.072Z,101025.13
2023-02-15T20:59:36.180Z,101028.75
2023-02-15T21:02:23.934Z,101026.38
2023-02-15T21:04:52.756Z,101024.06
2023-02-15T21:07:22.975Z,101031.28
2023-02-15T21:09:52.406Z,101023.47
2023-02-15T21:12:22.344Z,101026.34
2023-02-15T21:14:50.981Z,101029.00
2023-02-15T21:17:19.186Z,101031.19
2023-02-15T21:19:47.630Z,101031.44
2023-02-15T21:22:17.344Z,101033.34
2023-02-15T21:24:54.758Z,101030.69
2023-02-15T21:27:23.249Z,101031.28
2023-02-15T21:29:51.710Z,101050.63
2023-02-15T21:32:21.279Z,101036.00
2023-02-15T21:34:49.743Z,101038.88
2023-02-15T21:37:34.738Z,101042.56
2023-02-15T21:40:05.865Z,101042.56
2023-02-15T21:42:51.675Z,101040.91
2023-02-15T21:45:37.867Z,101041.97
2023-02-15T21:48:06.540Z,101037.78
2023-02-15T21:50:54.311Z,101045.22
2023-02-15T21:53:29.649Z,101032.97
2023-02-15T21:56:01.721Z,101036.69
2023-02-15T21:58:33.431Z,101035.34
2023-02-15T22:01:03.382Z,101029.59
2023-02-15T22:03:36.536Z,101035.00
2023-02-15T22:06:06.378Z,101031.63
2023-02-15T22:08:35.330Z,101036.91
2023-02-15T22:11:04.067Z,101031.75
2023-02-15T22:13:36.394Z,101037.28
2023-02-15T22:16:05.353Z,101036.66
2023-02-15T22:18:35.533Z,101039.53
2023-02-15T22:21:05.055Z,101045.75
2023-02-15T22:23:33.719Z,101044.06
2023-02-15T22:26:26.181Z,101041.91
2023-02-15T22:28:54.863Z,101034.00
2023-02-15T22:31:24.576Z,101026.31
2023-02-15T22:33:54.982Z,101036.25
2023-02-15T22:36:26.662Z,101041.16
2023-02-15T22:38:55.556Z,101035.53
2023-02-15T22:41:31.123Z,101035.53
2023-02-15T22:44:00.175Z,101039.84
2023-02-15T22:46:28.610Z,101043.31
2023-02-15T22:48:57.032Z,101043.31
2023-02-15T22:51:26.470Z,101045.03
2023-02-15T22:53:55.032Z,101049.44
2023-02-15T22:56:46.270Z,101049.69
2023-02-15T22:59:21.659Z,101047.03
2023-02-15T23:01:50.317Z,101044.63
2023-02-15T23:04:25.905Z,101042.09
2023-02-15T23:06:55.279Z,101042.00
2023-02-15T23:09:23.915Z,101041.06
2023-02-15T23:11:54.241Z,101042.72
2023-02-15T23:14:35.935Z,101036.72
2023-02-15T23:17:04.597Z,101039.03
2023-02-15T23:19:33.154Z,101036.50
2023-02-15T23:22:01.730Z,101041.38
2023-02-15T23:24:34.490Z,101037.06
2023-02-15T23:27:16.833Z,101034.19
2023-02-15T23:29:45.441Z,101040.31
2023-02-15T23:32:17.247Z,101041.88
2023-02-15T23:34:45.813Z,101033.94
2023-02-15T23:37:15.622Z,101035.63
2023-02-15T23:40:01.447Z,101040.22
2023-02-15T23:42:35.169Z,101037.81
2023-02-15T23:45:04.476Z,101040.44
2023-02-15T23:47:54.081Z,101049.31
2023-02-15T23:50:31.216Z,101038.25
2023-02-15T23:53:00.624Z,101047.84
2023-02-15T23:55:44.808Z,101041.72
2023-02-15T23:58:24.765Z,101035.72
